Time;durP1;ratioP1;P1;durP2;ratioP2;P2;SDS_P1;SDS_P2;PMS_P1;PMS_P2;Temp;Humidity;BMP_temperature;BMP_pressure;BME280_temperature;BME280_humidity;BME280_pressure;Samples;Min_cycle;Max_cycle;Signal;HPM_P1;HPM_P2
2022/04/28 00:01:58;;;;;;;46.28;22.35;;;;;;;5.51;69.38;101498.44;1735166;82;21066;-69
2022/04/28 00:04:25;;;;;;;41.48;21.60;;;;;;;5.55;69.43;101500.38;1721276;82;21005;-69
2022/04/28 00:06:51;;;;;;;41.08;21.40;;;;;;;5.59;69.49;101499.68;1721004;83;20990;-70
2022/04/28 00:09:16;;;;;;;40.38;18.90;;;;;;;5.61;69.55;101499.08;1720496;82;21172;-70
2022/04/28 00:11:43;;;;;;;35.20;18.48;;;;;;;5.62;69.58;101497.66;1717475;82;20881;-70
2022/04/28 00:14:08;;;;;;;39.53;19.35;;;;;;;5.67;69.63;101493.33;1727695;82;20994;-70
2022/04/28 00:16:35;;;;;;;34.75;18.23;;;;;;;5.69;69.66;101500.22;1734365;82;21919;-69
2022/04/28 00:19:02;;;;;;;36.68;17.05;;;;;;;5.67;69.76;101495.98;1749213;82;21023;-70
2022/04/28 00:21:28;;;;;;;28.47;14.95;;;;;;;5.70;69.80;101498.43;1736178;81;21227;-69
2022/04/28 00:23:54;;;;;;;25.68;14.73;;;;;;;5.75;69.86;101497.59;1724148;83;21004;-70
2022/04/28 00:26:20;;;;;;;25.75;14.23;;;;;;;5.80;69.87;101499.44;1712465;82;21035;-70
2022/04/28 00:28:47;;;;;;;24.45;13.38;;;;;;;5.82;69.93;101501.02;1717249;83;21066;-70
2022/04/28 00:31:13;;;;;;;26.82;12.55;;;;;;;5.86;69.95;101506.95;1708513;83;21076;-70
2022/04/28 00:33:42;;;;;;;21.60;11.78;;;;;;;5.90;69.98;101501.81;1694791;84;21135;-70
2022/04/28 00:36:09;;;;;;;19.70;10.80;;;;;;;5.94;70.01;101501.95;1719886;83;20980;-70
2022/04/28 00:38:35;;;;;;;16.42;10.60;;;;;;;6.00;70.05;101500.17;1755970;81;21032;-70
2022/04/28 00:41:01;;;;;;;18.05;11.05;;;;;;;6.06;70.05;101500.18;1727299;81;21070;-70
2022/04/28 00:43:30;;;;;;;20.32;11.12;;;;;;;6.12;70.07;101503.24;1741385;81;21083;-70
2022/04/28 00:45:57;;;;;;;19.50;11.25;;;;;;;6.16;70.07;101505.19;1743017;81;21146;-70
2022/04/28 00:51:08;;;;;;;20.85;12.37;;;;;;;6.23;70.07;101513.86;1725839;82;21065;-69
2022/04/28 00:53:38;;;;;;;25.62;13.38;;;;;;;6.26;70.06;101511.48;1720678;83;21013;-70
2022/04/28 00:56:04;;;;;;;22.25;11.88;;;;;;;6.27;70.04;101515.31;1720400;83;21025;-69
2022/04/28 00:58:30;;;;;;;25.57;12.95;;;;;;;6.30;70.02;101514.23;1721345;82;21143;-69
2022/04/28 01:00:56;;;;;;;27.42;13.32;;;;;;;6.31;69.99;101508.84;1699881;82;20911;-70
2022/04/28 01:03:22;;;;;;;28.57;14.50;;;;;;;6.33;69.98;101507.41;1735882;82;21066;-70
2022/04/28 01:05:49;;;;;;;28.40;14.83;;;;;;;6.35;69.95;101511.63;1734504;82;21040;-70
2022/04/28 01:08:16;;;;;;;37.25;14.70;;;;;;;6.40;69.93;101508.13;1734472;82;21676;-70
2022/04/28 01:10:42;;;;;;;29.42;12.35;;;;;;;6.42;69.90;101509.35;1707072;82;21194;-70
2022/04/28 01:13:08;;;;;;;25.08;13.38;;;;;;;6.41;69.86;101515.13;1724061;83;21121;-69
2022/04/28 01:15:46;;;;;;;24.85;12.47;;;;;;;6.41;69.86;101508.98;1726721;81;21136;-70
2022/04/28 01:18:13;;;;;;;22.98;12.03;;;;;;;6.42;69.88;101507.55;1749766;81;20999;-70
2022/04/28 01:20:39;;;;;;;19.40;10.30;;;;;;;6.43;69.84;101512.38;1723779;81;21102;-70
2022/04/28 01:23:05;;;;;;;19.50;10.95;;;;;;;6.42;69.85;101506.23;1699887;83;21826;-70
2022/04/28 01:25:31;;;;;;;23.92;11.90;;;;;;;6.43;69.83;101518.52;1721067;81;21066;-70
2022/04/28 01:27:58;;;;;;;20.68;10.93;;;;;;;6.45;69.84;101511.77;1720885;81;21058;-69
2022/04/28 01:30:24;;;;;;;23.83;11.75;;;;;;;6.47;69.85;101510.67;1742696;81;21104;-70
2022/04/28 01:32:51;;;;;;;21.95;11.40;;;;;;;6.47;69.84;101506.70;1727760;81;21547;-70
2022/04/28 01:35:17;;;;;;;23.83;9.95;;;;;;;6.49;69.85;101511.42;1732373;81;21082;-70
2022/04/28 01:37:43;;;;;;;21.40;10.78;;;;;;;6.50;69.82;101510.95;1720626;83;21419;-70
2022/04/28 01:40:13;;;;;;;16.62;9.68;;;;;;;6.50;69.83;101510.47;1727156;81;20887;-70
2022/04/28 01:42:41;;;;;;;22.25;10.43;;;;;;;6.52;69.85;101507.69;1721190;81;21023;-70
2022/04/28 01:45:09;;;;;;;26.20;11.12;;;;;;;6.50;69.82;101511.80;1721198;81;21090;-70
2022/04/28 01:47:35;;;;;;;24.32;11.00;;;;;;;6.47;69.84;101513.33;1721228;81;21540;-70
2022/04/28 01:50:02;;;;;;;21.77;10.53;;;;;;;6.47;69.84;101513.84;1720105;83;21003;-70
2022/04/28 01:55:12;;;;;;;19.55;10.70;;;;;;;6.44;69.83;101505.61;1727161;81;21067;-70
2022/04/28 01:57:39;;;;;;;17.02;9.85;;;;;;;6.39;69.83;101509.11;1727543;81;21006;-70
2022/04/28 02:00:06;;;;;;;20.15;9.88;;;;;;;6.36;69.82;101509.83;1753513;81;21576;-70
2022/04/28 02:02:32;;;;;;;20.88;10.55;;;;;;;6.34;69.82;101509.08;1697051;81;21510;-70
2022/04/28 02:05:01;;;;;;;19.00;9.83;;;;;;;6.25;69.79;101507.98;1695044;84;21775;-70
2022/04/28 02:07:28;;;;;;;16.35;9.63;;;;;;;6.16;69.81;101507.33;1720692;83;20987;-70
2022/04/28 02:09:54;;;;;;;20.40;10.60;;;;;;;6.10;69.79;101509.59;1755478;81;21486;-70
2022/04/28 02:12:20;;;;;;;19.35;11.15;;;;;;;6.02;69.78;101515.45;1752986;81;21156;-70
2022/04/28 02:14:47;;;;;;;26.20;12.45;;;;;;;5.95;69.79;101512.89;1725581;82;21350;-70
2022/04/28 02:17:20;;;;;;;31.27;11.95;;;;;;;5.87;69.79;101513.95;1736580;81;21022;-70
2022/04/28 02:19:46;;;;;;;37.15;12.03;;;;;;;5.79;69.77;101514.95;1752210;81;21513;-70
2022/04/28 02:22:12;;;;;;;34.15;12.20;;;;;;;5.74;69.78;101513.10;1733805;81;21017;-70
2022/04/28 02:24:38;;;;;;;26.57;12.55;;;;;;;5.66;69.78;101515.48;1726675;82;21710;-70
2022/04/28 02:27:04;;;;;;;19.32;10.85;;;;;;;5.60;69.81;101512.78;1725429;82;21523;-70
2022/04/28 02:29:30;;;;;;;24.65;11.00;;;;;;;5.54;69.82;101514.08;1737121;81;21078;-70
2022/04/28 02:31:56;;;;;;;16.05;9.78;;;;;;;5.50;69.85;101509.11;1697685;83;21413;-70
2022/04/28 02:34:22;;;;;;;19.17;10.40;;;;;;;5.46;69.86;101507.16;1726881;81;21035;-69
2022/04/28 02:36:48;;;;;;;16.70;9.98;;;;;;;5.43;69.91;101510.50;1701806;84;21682;-69
2022/04/28 02:39:14;;;;;;;17.45;10.13;;;;;;;5.39;69.94;101518.28;1701400;84;21149;-69
2022/04/28 02:41:41;;;;;;;20.50;10.70;;;;;;;5.30;69.95;101514.52;1701755;84;21018;-69
2022/04/28 02:44:09;;;;;;;18.00;10.15;;;;;;;5.26;70.00;101511.72;1721016;81;21554;-69
2022/04/28 02:46:35;;;;;;;20.10;10.10;;;;;;;5.23;70.03;101511.94;1722692;81;21015;-69
2022/04/28 02:49:01;;;;;;;22.07;10.82;;;;;;;5.16;70.08;101513.32;1719024;81;21019;-69
2022/04/28 02:51:27;;;;;;;19.45;10.50;;;;;;;5.12;70.12;101511.84;1720458;83;20876;-69
2022/04/28 02:53:53;;;;;;;20.30;10.72;;;;;;;5.10;70.16;101515.08;1720589;83;21157;-69
2022/04/28 02:56:19;;;;;;;17.23;10.53;;;;;;;5.05;70.18;101509.26;1722829;81;20920;-69
2022/04/28 02:58:45;;;;;;;18.55;10.82;;;;;;;5.02;70.21;101508.16;1724177;81;21031;-69
2022/04/28 03:01:11;;;;;;;17.17;9.45;;;;;;;4.97;70.27;101509.78;1722782;81;21594;-68
2022/04/28 03:03:37;;;;;;;19.37;10.15;;;;;;;4.93;70.31;101513.59;1720748;82;21595;-69
2022/04/28 03:11:32;;;;;;;15.18;10.65;;;;;;;4.81;70.45;101517.57;1723900;83;21035;-68
2022/04/28 03:13:59;;;;;;;16.00;9.63;;;;;;;4.77;70.49;101522.69;1724734;81;21617;-69
2022/04/28 03:16:25;;;;;;;18.27;9.88;;;;;;;4.74;70.53;101514.98;1723784;83;21093;-69
2022/04/28 03:18:51;;;;;;;14.75;9.18;;;;;;;4.68;70.56;101523.33;1716948;83;20991;-69
2022/04/28 03:21:17;;;;;;;17.02;9.53;;;;;;;4.66;70.60;101522.58;1723854;82;21117;-68
2022/04/28 03:23:43;;;;;;;18.15;9.43;;;;;;;4.64;70.63;101523.17;1742041;81;21042;-69
2022/04/28 03:26:09;;;;;;;21.15;8.93;;;;;;;4.63;70.67;101527.60;1728060;81;21070;-68
2022/04/28 03:28:38;;;;;;;15.63;8.48;;;;;;;4.58;70.72;101523.09;1708997;83;21050;-68
2022/04/28 03:31:05;;;;;;;21.90;10.13;;;;;;;4.56;70.77;101530.28;1729388;83;21103;-69
2022/04/28 03:33:31;;;;;;;19.45;9.58;;;;;;;4.56;70.81;101533.40;1724801;83;21012;-69
2022/04/28 03:35:58;;;;;;;19.00;9.30;;;;;;;4.56;70.86;101530.75;1696768;84;21050;-68
2022/04/28 03:38:24;;;;;;;17.90;8.95;;;;;;;4.56;70.90;101540.00;1726271;83;21484;-69
2022/04/28 03:40:50;;;;;;;17.75;9.58;;;;;;;4.53;70.95;101531.34;1728520;81;21766;-69
2022/04/28 03:43:17;;;;;;;21.65;10.15;;;;;;;4.54;70.99;101537.45;1731414;82;21061;-68
2022/04/28 03:45:43;;;;;;;26.55;10.90;;;;;;;4.56;71.04;101537.36;1726527;81;21483;-68
2022/04/28 03:48:09;;;;;;;25.85;10.55;;;;;;;4.59;71.07;101534.51;1723709;82;21013;-68
2022/04/28 03:50:37;;;;;;;24.15;11.08;;;;;;;4.58;71.12;101538.94;1723486;82;21883;-68
2022/04/28 03:53:03;;;;;;;24.32;10.20;;;;;;;4.59;71.17;101539.79;1724175;81;21054;-68
2022/04/28 03:55:29;;;;;;;18.20;10.03;;;;;;;4.62;71.20;101547.50;1731431;81;21011;-69
2022/04/28 03:57:55;;;;;;;22.80;10.93;;;;;;;4.64;71.24;101549.59;1735730;82;20906;-68
2022/04/28 04:00:21;;;;;;;25.97;10.45;;;;;;;4.67;71.28;101548.91;1723657;83;21021;-69
2022/04/28 04:02:47;;;;;;;24.95;9.68;;;;;;;4.71;71.32;101561.43;1723677;83;21078;-69
2022/04/28 04:05:13;;;;;;;15.75;10.38;;;;;;;4.75;71.35;101564.23;1724022;81;21506;-68
2022/04/28 04:07:40;;;;;;;14.68;10.05;;;;;;;4.79;71.40;101571.83;1723762;82;21049;-69
2022/04/28 04:10:06;;;;;;;18.02;9.53;;;;;;;5.19;71.68;101569.95;1723656;83;21088;-69
2022/04/28 04:12:33;;;;;;;16.35;9.90;;;;;;;5.75;71.74;101569.05;1723673;83;20994;-69
2022/04/28 04:14:59;;;;;;;17.57;10.55;;;;;;;6.56;71.82;101570.10;1723714;81;22087;-69
2022/04/28 04:17:25;;;;;;;20.97;9.88;;;;;;;7.40;71.75;101577.72;1723503;83;21025;-69
2022/04/28 04:19:51;;;;;;;21.42;9.83;;;;;;;8.17;71.49;101577.23;1724002;82;21062;-69
2022/04/28 04:22:17;;;;;;;23.83;10.88;;;;;;;8.87;71.19;101577.55;1703824;84;21021;-69
2022/04/28 04:24:43;;;;;;;18.05;10.03;;;;;;;9.48;70.95;101559.33;1710583;82;21030;-69
2022/04/28 04:27:14;;;;;;;15.32;8.98;;;;;;;10.21;70.51;101579.92;1703327;84;21545;-69
2022/04/28 04:29:40;;;;;;;16.07;8.30;;;;;;;10.83;70.33;101580.37;1721936;82;21051;-69
2022/04/28 04:32:20;;;;;;;15.68;8.83;;;;;;;11.17;69.74;101578.03;1723677;83;21035;-69
2022/04/28 04:34:47;;;;;;;13.85;9.15;;;;;;;11.43;69.34;101581.73;1731967;81;21055;-69
2022/04/28 04:37:14;;;;;;;13.93;8.38;;;;;;;11.83;68.86;101584.61;1719281;83;21042;-69
2022/04/28 04:39:43;;;;;;;14.80;6.70;;;;;;;12.16;68.40;101589.34;1759713;81;21887;-70
2022/04/28 04:42:09;;;;;;;13.85;7.40;;;;;;;12.49;67.69;101594.01;1759353;81;21008;-70
2022/04/28 04:44:35;;;;;;;20.85;9.58;;;;;;;12.84;67.01;101596.34;1723713;82;21026;-70
2022/04/28 04:47:02;;;;;;;21.30;12.88;;;;;;;12.91;65.80;101599.55;1725185;81;21030;-70
2022/04/28 04:49:28;;;;;;;26.42;15.98;;;;;;;12.45;65.03;101606.01;1759279;81;21004;-70
2022/04/28 04:51:54;;;;;;;28.12;14.78;;;;;;;12.76;65.14;101604.30;1758699;81;21146;-70
2022/04/28 04:54:22;;;;;;;25.97;12.78;;;;;;;13.35;64.72;101607.10;1730484;81;20990;-71
2022/04/28 04:56:48;;;;;;;17.55;9.83;;;;;;;13.59;63.60;101605.55;1726998;82;21019;-70
2022/04/28 04:59:14;;;;;;;15.08;9.10;;;;;;;13.48;62.20;101607.51;1737737;82;21094;-70
2022/04/28 05:01:41;;;;;;;13.45;7.30;;;;;;;13.05;61.75;101605.37;1730244;82;21061;-70
2022/04/28 05:04:07;;;;;;;11.55;6.70;;;;;;;12.55;61.75;101611.80;1721703;82;21034;-70
2022/04/28 05:06:34;;;;;;;11.73;7.70;;;;;;;12.15;61.81;101618.90;1722153;82;21538;-70
2022/04/28 05:09:00;;;;;;;12.90;6.85;;;;;;;11.56;61.82;101613.96;1721762;82;21530;-70
2022/04/28 05:11:25;;;;;;;7.72;5.80;;;;;;;11.56;61.82;101613.96;1721553;82;20921;-70
2022/04/28 05:13:51;;;;;;;9.73;6.72;;;;;;;11.43;61.53;101615.64;1723230;82;21649;-70
2022/04/28 05:16:17;;;;;;;10.35;6.83;;;;;;;11.48;61.44;101622.22;1701413;83;22116;-70
2022/04/28 05:18:43;;;;;;;10.60;7.00;;;;;;;11.57;61.25;101617.84;1698040;84;21023;-70
2022/04/28 05:21:09;;;;;;;12.40;7.20;;;;;;;11.52;61.00;101624.95;1712890;83;21058;-70
2022/04/28 05:23:35;;;;;;;13.43;8.55;;;;;;;11.44;60.84;101626.16;1696542;83;20992;-70
2022/04/28 05:26:01;;;;;;;13.62;7.60;;;;;;;11.39;60.72;101628.44;1721629;83;21025;-70
2022/04/28 05:28:27;;;;;;;25.68;10.13;;;;;;;11.58;60.58;101628.00;1720101;83;21138;-70
2022/04/28 05:30:55;;;;;;;21.35;9.58;;;;;;;11.65;60.43;101633.95;1714635;82;21057;-71
2022/04/28 05:33:22;;;;;;;14.90;9.08;;;;;;;11.65;60.19;101628.61;1702130;83;21026;-70
2022/04/28 05:35:48;;;;;;;21.60;11.53;;;;;;;11.75;60.08;101637.98;1729926;82;21573;-70
2022/04/28 05:38:14;;;;;;;15.50;9.40;;;;;;;11.82;59.94;101640.41;1729324;82;21018;-70
2022/04/28 05:40:41;;;;;;;28.42;10.98;;;;;;;11.90;59.73;101632.47;1713946;83;21149;-70
2022/04/28 05:45:51;;;;;;;18.95;10.13;;;;;;;12.15;59.44;101639.80;1730054;81;21024;-70
2022/04/28 05:48:19;;;;;;;11.93;8.23;;;;;;;12.13;59.24;101647.14;1719573;82;21069;-70
2022/04/28 05:50:45;;;;;;;15.38;9.13;;;;;;;12.30;59.16;101642.32;1727083;82;21687;-70
2022/04/28 05:53:11;;;;;;;20.23;10.50;;;;;;;12.39;58.98;101647.25;1753330;81;21225;-70
2022/04/28 05:55:37;;;;;;;14.58;7.60;;;;;;;12.36;58.68;101641.71;1729692;81;21036;-71
2022/04/28 05:58:04;;;;;;;14.50;8.80;;;;;;;12.35;58.57;101645.89;1740130;82;21015;-70
2022/04/28 06:00:31;;;;;;;17.55;9.55;;;;;;;12.31;58.48;101646.69;1717770;83;20999;-70
2022/04/28 06:02:57;;;;;;;10.10;7.50;;;;;;;12.46;58.33;101643.81;1717926;83;21865;-71
2022/04/28 06:05:23;;;;;;;14.75;8.18;;;;;;;12.42;58.09;101642.44;1708323;83;21768;-70
2022/04/28 06:07:49;;;;;;;15.90;8.18;;;;;;;12.12;57.87;101653.97;1702857;83;21550;-70
2022/04/28 06:10:15;;;;;;;15.95;8.45;;;;;;;11.94;57.73;101652.58;1722886;82;21473;-71
2022/04/28 06:12:42;;;;;;;15.68;8.35;;;;;;;11.93;57.64;101657.57;1746708;82;20988;-70
2022/04/28 06:15:08;;;;;;;17.27;8.98;;;;;;;12.03;57.54;101650.86;1709273;82;21109;-70
2022/04/28 06:17:34;;;;;;;13.03;8.58;;;;;;;12.14;57.55;101652.81;1743490;82;21134;-70
2022/04/28 06:20:00;;;;;;;18.30;8.45;;;;;;;12.18;57.52;101658.22;1747544;82;20984;-71
2022/04/28 06:22:26;;;;;;;15.60;8.48;;;;;;;12.21;57.37;101659.25;1740776;82;21177;-70
2022/04/28 06:24:54;;;;;;;17.25;10.35;;;;;;;12.29;57.42;101657.17;1716639;82;20983;-70
2022/04/28 06:27:21;;;;;;;18.23;9.88;;;;;;;12.39;57.28;101657.95;1726636;82;21073;-71
2022/04/28 06:29:49;;;;;;;17.40;10.05;;;;;;;12.46;57.11;101663.04;1717898;82;21130;-71
2022/04/28 06:32:17;;;;;;;13.35;8.10;;;;;;;12.52;57.12;101667.28;1720927;82;21048;-70
2022/04/28 06:34:44;;;;;;;11.15;7.17;;;;;;;12.53;56.94;101660.95;1662070;86;21068;-70
2022/04/28 06:37:10;;;;;;;18.30;8.40;;;;;;;12.51;56.83;101662.95;1716875;82;21022;-70
2022/04/28 06:39:36;;;;;;;12.15;7.75;;;;;;;12.45;56.75;101662.72;1722138;82;21050;-70
2022/04/28 06:42:03;;;;;;;15.45;7.17;;;;;;;12.53;56.68;101669.47;1710569;82;21151;-70
2022/04/28 06:44:29;;;;;;;15.90;8.18;;;;;;;12.80;56.67;101664.08;1727846;82;21055;-70
2022/04/28 06:46:55;;;;;;;14.98;8.48;;;;;;;13.06;56.54;101668.13;1728987;82;21248;-70
2022/04/28 06:49:21;;;;;;;9.20;6.83;;;;;;;13.20;56.31;101664.92;1714960;82;20984;-70
2022/04/28 06:51:47;;;;;;;11.43;7.10;;;;;;;13.20;56.31;101664.92;1719259;82;21074;-70
2022/04/28 06:54:13;;;;;;;9.25;7.08;;;;;;;13.04;55.88;101643.36;1721401;82;21152;-70
2022/04/28 06:56:39;;;;;;;11.90;7.95;;;;;;;13.04;55.88;101643.36;1709361;81;20905;-70
2022/04/28 06:59:06;;;;;;;13.05;6.67;;;;;;;13.01;55.58;101673.13;1720144;81;20924;-71
2022/04/28 07:01:32;;;;;;;12.05;7.10;;;;;;;12.95;55.41;101665.69;1748356;81;21050;-70
2022/04/28 07:03:58;;;;;;;9.43;6.80;;;;;;;12.87;55.11;101646.89;1723877;83;21027;-70
2022/04/28 07:06:25;;;;;;;12.10;6.75;;;;;;;12.87;55.00;101665.64;1727990;82;21655;-70
2022/04/28 07:08:50;;;;;;;12.55;7.53;;;;;;;12.93;54.75;101673.05;1758741;81;21082;-70
2022/04/28 07:11:17;;;;;;;10.25;6.58;;;;;;;13.13;54.56;101665.70;1744697;81;20992;-71
2022/04/28 07:13:42;;;;;;;14.85;7.85;;;;;;;13.19;54.34;101647.20;1759691;81;21460;-71
2022/04/28 07:16:08;;;;;;;8.83;6.42;;;;;;;13.18;53.78;101668.27;1741095;81;21097;-70
2022/04/28 07:18:34;;;;;;;10.20;6.22;;;;;;;13.18;53.78;101668.27;1729655;81;21063;-71
2022/04/28 07:21:02;;;;;;;10.80;7.28;;;;;;;13.31;53.70;101674.06;1743647;81;21089;-70
2022/04/28 07:23:28;;;;;;;11.63;7.03;;;;;;;13.49;53.37;101668.16;1740037;81;21579;-70
2022/04/28 07:25:54;;;;;;;14.65;8.70;;;;;;;13.72;53.25;101666.30;1729270;82;21122;-71
2022/04/28 07:28:20;;;;;;;8.75;6.80;;;;;;;13.83;53.16;101673.54;1726207;82;21600;-71
2022/04/28 07:30:46;;;;;;;8.60;6.65;;;;;;;13.92;53.01;101671.75;1722669;83;21869;-71
2022/04/28 07:33:12;;;;;;;12.65;6.85;;;;;;;13.96;52.83;101673.11;1732330;81;21567;-71
2022/04/28 07:35:38;;;;;;;20.97;8.70;;;;;;;14.04;52.77;101670.45;1734546;81;21551;-71
2022/04/28 07:38:05;;;;;;;17.65;7.40;;;;;;;14.18;52.59;101669.83;1754092;81;21447;-71
2022/04/28 07:40:31;;;;;;;13.00;6.20;;;;;;;14.18;52.39;101677.88;1704969;83;21027;-71
2022/04/28 07:42:58;;;;;;;10.23;6.22;;;;;;;14.30;52.24;101681.97;1702567;84;21070;-71
2022/04/28 07:45:24;;;;;;;10.68;5.60;;;;;;;14.32;52.03;101677.27;1702690;84;21026;-71
2022/04/28 07:47:50;;;;;;;14.70;7.92;;;;;;;14.24;51.61;101681.78;1702939;82;21025;-71
2022/04/28 07:50:16;;;;;;;28.73;10.50;;;;;;;14.23;51.25;101680.94;1703457;82;21038;-71
2022/04/28 07:52:43;;;;;;;15.88;7.62;;;;;;;14.45;51.09;101677.69;1730175;82;21105;-71
2022/04/28 07:55:10;;;;;;;9.98;5.10;;;;;;;14.70;50.88;101687.14;1721810;81;21148;-71
2022/04/28 07:57:37;;;;;;;18.42;5.50;;;;;;;14.77;50.62;101681.45;1723716;82;21005;-71
2022/04/28 08:00:07;;;;;;;9.95;5.25;;;;;;;14.95;50.49;101687.52;1689063;84;21030;-71
2022/04/28 08:02:36;;;;;;;12.82;5.87;;;;;;;15.00;50.26;101685.15;1728332;81;21050;-71
2022/04/28 08:05:01;;;;;;;15.55;8.13;;;;;;;15.10;50.09;101691.19;1725025;83;21018;-71
2022/04/28 08:07:28;;;;;;;13.30;7.60;;;;;;;15.23;49.95;101687.52;1746249;81;21062;-71
2022/04/28 08:09:54;;;;;;;10.18;5.80;;;;;;;15.26;49.68;101689.87;1738789;81;20991;-71
2022/04/28 08:12:20;;;;;;;7.87;5.37;;;;;;;15.21;49.40;101685.98;1731315;81;21051;-71
2022/04/28 08:14:46;;;;;;;9.03;5.55;;;;;;;15.32;49.28;101687.84;1729596;81;20897;-71
2022/04/28 08:17:12;;;;;;;13.50;5.42;;;;;;;15.39;49.05;101688.00;1731118;81;21416;-71
2022/04/28 08:19:38;;;;;;;7.37;5.22;;;;;;;15.42;48.70;101685.81;1723787;82;21144;-71
2022/04/28 08:22:04;;;;;;;7.45;4.92;;;;;;;15.39;48.33;101685.31;1727435;82;21017;-72
2022/04/28 08:24:30;;;;;;;6.40;4.75;;;;;;;15.25;47.86;101692.21;1718378;83;21093;-72
2022/04/28 08:26:56;;;;;;;8.28;4.97;;;;;;;15.12;47.33;101683.83;1731110;82;21060;-73
2022/04/28 08:29:22;;;;;;;12.18;5.67;;;;;;;15.09;47.06;101697.59;1720672;83;21022;-72
2022/04/28 08:31:49;;;;;;;7.30;4.47;;;;;;;15.21;46.86;101692.70;1704508;82;21090;-72
2022/04/28 08:34:21;;;;;;;5.78;4.30;;;;;;;15.39;46.62;101691.53;1703046;83;21073;-74
2022/04/28 08:36:48;;;;;;;9.35;4.78;;;;;;;15.38;46.32;101691.69;1721156;83;21022;-72
2022/04/28 08:39:14;;;;;;;12.45;4.92;;;;;;;15.36;46.04;101693.22;1709511;82;21082;-72
2022/04/28 08:41:42;;;;;;;9.60;4.20;;;;;;;15.43;46.03;101694.22;1706264;83;21497;-72
2022/04/28 08:44:13;;;;;;;10.15;5.58;;;;;;;15.38;45.78;101691.19;1714371;82;21361;-72
2022/04/28 08:46:51;;;;;;;8.30;4.78;;;;;;;15.42;45.64;101697.91;1722955;83;21469;-72
2022/04/28 08:49:24;;;;;;;6.87;4.60;;;;;;;15.51;45.58;101684.50;1724197;83;21015;-72
2022/04/28 08:51:52;;;;;;;5.85;3.85;;;;;;;15.70;45.59;101683.60;1734290;81;21046;-72
2022/04/28 08:54:18;;;;;;;11.57;5.53;;;;;;;15.85;45.56;101685.08;1724155;81;21026;-72
2022/04/28 08:56:44;;;;;;;10.60;4.30;;;;;;;15.94;45.48;101689.41;1707195;82;21148;-73
2022/04/28 08:59:11;;;;;;;7.17;4.30;;;;;;;16.08;45.39;101686.00;1708061;83;21536;-72
2022/04/28 09:01:37;;;;;;;10.50;4.47;;;;;;;16.03;44.85;101699.16;1700537;83;21539;-72
2022/04/28 09:04:04;;;;;;;9.55;4.22;;;;;;;15.90;44.61;101690.80;1700367;83;21055;-72
2022/04/28 09:06:34;;;;;;;6.42;4.10;;;;;;;15.92;44.57;101688.77;1708552;83;21040;-72
2022/04/28 09:09:11;;;;;;;9.23;4.17;;;;;;;16.02;44.43;101688.05;1706832;82;25257;-72
2022/04/28 09:11:39;;;;;;;15.25;5.30;;;;;;;15.87;43.71;101689.77;1707264;83;21017;-72
2022/04/28 09:14:11;;;;;;;7.30;4.37;;;;;;;15.62;43.22;101690.33;1703405;82;21464;-72
2022/04/28 09:16:49;;;;;;;10.43;4.40;;;;;;;15.76;43.20;101692.85;1728328;81;21000;-71
2022/04/28 09:19:19;;;;;;;6.62;3.70;;;;;;;15.90;43.06;101696.18;1722327;81;21019;-72
2022/04/28 09:21:46;;;;;;;7.75;4.25;;;;;;;15.98;42.93;101705.55;1723382;81;22367;-71
2022/04/28 09:24:13;;;;;;;11.43;4.03;;;;;;;16.06;42.88;101706.88;1724185;81;21039;-71
2022/04/28 09:26:39;;;;;;;20.25;5.28;;;;;;;15.96;42.81;101700.86;1720924;83;21086;-71
2022/04/28 09:29:06;;;;;;;6.40;3.83;;;;;;;16.02;42.79;101704.20;1702296;82;21019;-71
2022/04/28 09:31:37;;;;;;;7.58;3.87;;;;;;;15.96;42.75;101699.52;1699921;83;22063;-71
2022/04/28 09:34:10;;;;;;;25.52;10.20;;;;;;;15.92;42.75;101704.41;1719004;83;21124;-71
2022/04/28 09:36:40;;;;;;;10.98;4.58;;;;;;;15.98;42.65;101700.17;1719331;82;21022;-71
2022/04/28 09:39:09;;;;;;;4.75;3.10;;;;;;;16.14;42.66;101694.74;1705751;83;21029;-71
2022/04/28 09:44:20;;;;;;;5.42;3.42;;;;;;;16.03;42.43;101705.03;1675244;85;21018;-71
2022/04/28 09:46:47;;;;;;;9.65;3.58;;;;;;;15.98;42.28;101706.89;1689446;83;21130;-71
2022/04/28 09:49:17;;;;;;;9.33;4.45;;;;;;;15.94;42.04;101700.17;1707004;83;21119;-71
2022/04/28 09:51:44;;;;;;;6.58;4.28;;;;;;;15.93;41.82;101697.17;1679349;83;21520;-71
2022/04/28 09:54:13;;;;;;;7.95;3.90;;;;;;;15.98;41.87;101696.12;1701733;83;21024;-71
2022/04/28 09:56:40;;;;;;;;;;;;;;;16.03;41.73;101697.81;1714884;83;21087;-71
2022/04/28 09:59:09;;;;;;;5.83;3.77;;;;;;;15.98;41.59;101701.52;1698378;82;21246;-71
2022/04/28 10:01:37;;;;;;;6.17;4.15;;;;;;;15.79;41.59;101700.08;1711066;83;20995;-71
2022/04/28 10:04:05;;;;;;;10.43;5.17;;;;;;;15.78;41.69;101696.20;1725141;83;21468;-71
2022/04/28 10:06:35;;;;;;;9.93;5.42;;;;;;;15.99;41.69;101693.78;1726580;81;21033;-70
2022/04/28 10:09:03;;;;;;;10.93;5.10;;;;;;;16.10;41.60;101682.64;1727850;81;21008;-71
2022/04/28 10:11:29;;;;;;;11.22;5.25;;;;;;;16.26;41.61;101690.64;1734728;81;22078;-71
2022/04/28 10:13:56;;;;;;;13.83;4.50;;;;;;;16.54;41.72;101691.00;1744230;81;21071;-71
2022/04/28 10:16:24;;;;;;;8.40;4.20;;;;;;;16.73;41.65;101692.44;1726354;82;21079;-71
2022/04/28 10:19:12;;;;;;;7.72;3.77;;;;;;;16.74;41.42;101698.16;1716616;82;20986;-72
2022/04/28 10:21:52;;;;;;;8.15;4.50;;;;;;;16.46;41.25;101699.14;1715704;83;21062;-71
2022/04/28 10:33:00;;;;;;;7.42;4.47;;;;;;;16.56;41.15;101696.25;1694795;84;21586;-72
2022/04/28 10:35:47;;;;;;;7.95;4.80;;;;;;;16.74;41.13;101704.90;1729361;83;21535;-71
2022/04/28 10:38:31;;;;;;;6.90;4.42;;;;;;;16.85;41.11;101696.41;1741925;81;21453;-72
2022/04/28 10:41:06;;;;;;;7.45;3.90;;;;;;;16.96;41.02;101698.16;1697956;83;21055;-72
2022/04/28 10:43:38;;;;;;;6.35;4.03;;;;;;;16.79;40.67;101701.14;1725139;81;21538;-71
2022/04/28 10:46:13;;;;;;;8.83;4.55;;;;;;;16.40;40.58;101702.02;1718551;82;21488;-72
2022/04/28 10:48:42;;;;;;;11.48;4.58;;;;;;;16.05;40.57;101702.50;1714066;82;21006;-72
2022/04/28 10:51:20;;;;;;;9.43;3.95;;;;;;;16.08;40.69;101707.53;1736308;81;21167;-71
2022/04/28 10:53:59;;;;;;;12.73;4.72;;;;;;;16.24;40.61;101693.18;1734330;81;21022;-70
2022/04/28 10:56:28;;;;;;;9.25;4.28;;;;;;;16.53;40.63;101708.19;1725898;82;21031;-71
2022/04/28 10:58:59;;;;;;;6.37;4.30;;;;;;;16.47;40.47;101700.30;1732461;81;21010;-71
2022/04/28 11:01:28;;;;;;;5.58;4.05;;;;;;;16.18;40.37;101698.77;1739224;81;21014;-71
2022/04/28 11:03:57;;;;;;;4.90;3.85;;;;;;;16.12;40.44;101702.13;1729635;81;21191;-71
2022/04/28 11:06:31;;;;;;;9.65;3.90;;;;;;;16.24;40.44;101702.60;1678888;83;21070;-73
2022/04/28 11:08:59;;;;;;;8.98;3.58;;;;;;;16.43;40.36;101698.96;1712304;82;21011;-72
2022/04/28 11:11:29;;;;;;;10.30;4.37;;;;;;;16.53;40.24;101699.27;1702352;82;21071;-72
2022/04/28 11:13:57;;;;;;;7.17;3.80;;;;;;;16.60;40.09;101698.42;1754159;81;21015;-72
2022/04/28 11:16:27;;;;;;;4.87;3.83;;;;;;;16.69;40.07;101708.12;1753808;81;21068;-73
2022/04/28 11:18:54;;;;;;;6.00;4.00;;;;;;;16.77;39.99;101697.30;1726876;81;21011;-73
2022/04/28 11:21:21;;;;;;;8.65;4.03;;;;;;;16.96;39.87;101705.40;1728551;82;21486;-73
2022/04/28 11:23:48;;;;;;;8.15;3.85;;;;;;;17.01;39.78;101698.13;1702952;82;21051;-72
2022/04/28 11:26:14;;;;;;;15.10;3.98;;;;;;;16.98;39.67;101692.09;1708708;82;21082;-71
2022/04/28 11:28:41;;;;;;;8.68;3.45;;;;;;;16.96;39.50;101694.62;1719784;82;21059;-71
2022/04/28 11:31:18;;;;;;;7.97;4.20;;;;;;;16.86;39.15;101698.06;1704763;83;21504;-71
2022/04/28 11:33:48;;;;;;;6.65;3.60;;;;;;;16.72;39.03;101692.09;1711445;83;21560;-71
2022/04/28 11:36:22;;;;;;;10.10;4.22;;;;;;;16.60;38.90;101697.58;1708562;83;21641;-71
2022/04/28 11:38:54;;;;;;;7.87;4.20;;;;;;;16.73;38.96;101701.36;1708966;83;21024;-72
2022/04/28 11:41:27;;;;;;;9.83;3.90;;;;;;;16.84;38.90;101704.16;1704682;84;21167;-72
2022/04/28 11:43:52;;;;;;;7.62;3.58;;;;;;;16.88;38.74;101704.13;1704557;82;21034;-71
2022/04/28 11:46:19;;;;;;;6.37;3.60;;;;;;;16.92;38.55;101706.27;1703080;84;20927;-72